createdAt,value
2023-03-21T00:01:05.381Z,8.53
2023-03-21T00:03:34.612Z,8.53
2023-03-21T00:06:11.963Z,8.53
2023-03-21T00:08:40.757Z,8.52
2023-03-21T00:11:10.902Z,8.50
2023-03-21T00:13:42.546Z,8.47
2023-03-21T00:16:20.764Z,8.47
2023-03-21T00:18:53.585Z,8.47
2023-03-21T00:24:16.660Z,8.44
2023-03-21T00:34:22.682Z,8.44
2023-03-21T00:37:01.794Z,8.45
2023-03-21T00:39:29.745Z,8.45
2023-03-21T00:41:57.778Z,8.45
2023-03-21T00:44:25.892Z,8.42
2023-03-21T00:47:06.588Z,8.41
2023-03-21T00:49:38.284Z,8.41
2023-03-21T00:52:18.355Z,8.40
2023-03-21T00:54:52.423Z,8.38
2023-03-21T00:57:29.298Z,8.36
2023-03-21T01:00:08.027Z,8.38
2023-03-21T01:02:38.145Z,8.38
2023-03-21T01:05:06.922Z,8.40
2023-03-21T01:07:34.787Z,8.41
2023-03-21T01:10:02.641Z,8.42
2023-03-21T01:12:30.561Z,8.42
2023-03-21T01:14:58.814Z,8.42
2023-03-21T01:17:26.641Z,8.43
2023-03-21T01:19:54.477Z,8.44
2023-03-21T01:22:22.402Z,8.44
2023-03-21T01:24:56.697Z,8.41
2023-03-21T01:27:28.863Z,8.39
2023-03-21T01:29:56.987Z,8.38
2023-03-21T01:32:25.124Z,8.38
2023-03-21T01:34:52.961Z,8.37
2023-03-21T01:37:22.840Z,8.35
2023-03-21T01:39:51.904Z,8.33
2023-03-21T01:42:20.067Z,8.31
2023-03-21T01:45:05.044Z,8.29
2023-03-21T01:47:40.598Z,8.26
2023-03-21T01:50:41.255Z,8.24
2023-03-21T01:53:30.180Z,8.22
2023-03-21T01:56:07.187Z,8.22
2023-03-21T01:58:59.002Z,8.21
2023-03-21T02:01:57.350Z,8.19
2023-03-21T02:04:28.209Z,8.18
2023-03-21T02:07:19.095Z,8.14
2023-03-21T02:09:53.836Z,8.10
2023-03-21T02:12:24.120Z,8.09
2023-03-21T02:14:53.351Z,8.05
2023-03-21T02:17:50.406Z,8.04
2023-03-21T02:20:49.754Z,8.01
2023-03-21T02:24:07.693Z,7.98
2023-03-21T02:27:13.138Z,7.96
2023-03-21T02:30:17.431Z,7.93
2023-03-21T02:33:00.570Z,7.89
2023-03-21T02:35:52.411Z,7.85
2023-03-21T02:38:32.060Z,7.81
2023-03-21T02:41:19.011Z,7.77
2023-03-21T02:44:17.105Z,7.73
2023-03-21T02:47:02.870Z,7.72
2023-03-21T02:49:38.550Z,7.73
2023-03-21T02:52:16.843Z,7.76
2023-03-21T02:54:51.709Z,7.79
2023-03-21T02:57:25.328Z,7.79
2023-03-21T03:00:02.312Z,7.83
2023-03-21T03:02:34.855Z,7.88
2023-03-21T03:05:21.223Z,7.93
2023-03-21T03:08:04.979Z,7.98
2023-03-21T03:10:33.163Z,8.01
2023-03-21T03:13:09.734Z,8.04
2023-03-21T03:15:51.907Z,8.07
2023-03-21T03:19:00.830Z,8.10
2023-03-21T03:21:47.358Z,8.12
2023-03-21T03:24:23.042Z,8.13
2023-03-21T03:26:59.674Z,8.13
2023-03-21T03:29:31.047Z,8.13
2023-03-21T03:32:12.347Z,8.11
2023-03-21T03:34:45.905Z,8.10
2023-03-21T03:37:19.502Z,8.10
2023-03-21T03:39:58.285Z,8.11
2023-03-21T03:42:52.338Z,8.11
2023-03-21T03:45:37.890Z,8.09
2023-03-21T03:48:37.780Z,8.08
2023-03-21T03:51:23.699Z,8.08
2023-03-21T03:54:39.890Z,8.06
2023-03-21T03:57:12.791Z,8.05
2023-03-21T03:59:45.396Z,8.04
2023-03-21T04:02:52.438Z,8.02
2023-03-21T04:05:24.653Z,8.04
2023-03-21T04:07:54.848Z,8.05
2023-03-21T04:10:29.255Z,8.05
2023-03-21T04:12:57.456Z,8.06
2023-03-21T04:15:37.782Z,8.06
2023-03-21T04:18:12.934Z,8.07
2023-03-21T04:20:41.316Z,8.05
2023-03-21T04:23:09.678Z,8.03
2023-03-21T04:25:44.601Z,8.04
2023-03-21T04:28:19.133Z,8.07
2023-03-21T04:31:05.293Z,8.08
2023-03-21T04:33:45.178Z,8.07
2023-03-21T04:36:25.078Z,8.04
2023-03-21T04:38:55.139Z,8.04
2023-03-21T04:41:23.140Z,8.03
2023-03-21T04:43:52.714Z,8.04
2023-03-21T04:46:21.092Z,8.04
2023-03-21T04:48:51.016Z,8.03
2023-03-21T04:51:19.078Z,8.04
2023-03-21T04:53:49.635Z,8.04
2023-03-21T04:56:18.042Z,8.05
2023-03-21T04:58:46.260Z,8.06
2023-03-21T05:01:20.234Z,8.07
2023-03-21T05:03:49.160Z,8.11
2023-03-21T05:06:17.648Z,8.14
2023-03-21T05:08:45.819Z,8.16
2023-03-21T05:11:13.986Z,8.15
2023-03-21T05:13:42.087Z,8.15
2023-03-21T05:16:10.773Z,8.17
2023-03-21T05:18:39.129Z,8.20
2023-03-21T05:21:18.352Z,8.22
2023-03-21T05:23:54.675Z,8.22
2023-03-21T05:26:26.172Z,8.23
2023-03-21T05:29:10.382Z,8.26
2023-03-21T05:31:38.830Z,8.27
2023-03-21T05:34:10.364Z,8.29
2023-03-21T05:36:39.043Z,8.30
2023-03-21T05:39:09.461Z,8.31
2023-03-21T05:41:41.253Z,8.33
2023-03-21T05:44:10.078Z,8.36
2023-03-21T05:46:39.102Z,8.37
2023-03-21T05:49:07.480Z,8.37
2023-03-21T05:51:36.272Z,8.36
2023-03-21T05:54:04.577Z,8.37
2023-03-21T05:56:33.505Z,8.40
2023-03-21T05:59:05.503Z,8.42
2023-03-21T06:01:37.301Z,8.45
2023-03-21T06:04:08.918Z,8.51
2023-03-21T06:06:39.110Z,8.55
2023-03-21T06:09:08.229Z,8.60
2023-03-21T06:11:38.330Z,8.69
2023-03-21T06:14:17.070Z,8.74
2023-03-21T06:16:46.239Z,8.78
2023-03-21T06:19:14.721Z,8.77
2023-03-21T06:21:56.462Z,8.80
2023-03-21T06:24:24.736Z,8.84
2023-03-21T06:26:53.297Z,8.82
2023-03-21T06:29:21.887Z,8.83
2023-03-21T06:31:50.508Z,8.87
2023-03-21T06:34:18.963Z,8.90
2023-03-21T06:36:47.225Z,8.93
2023-03-21T06:39:16.317Z,8.95
2023-03-21T06:41:45.001Z,8.99
2023-03-21T06:44:13.279Z,9.04
2023-03-21T06:46:47.974Z,9.09
2023-03-21T06:49:19.055Z,9.11
2023-03-21T06:51:47.319Z,9.13
2023-03-21T06:54:20.118Z,9.16
2023-03-21T06:56:54.519Z,9.21
2023-03-21T06:59:26.994Z,9.19
2023-03-21T07:01:59.510Z,9.16
2023-03-21T07:04:27.852Z,9.15
2023-03-21T07:06:56.641Z,9.17
2023-03-21T07:09:28.245Z,9.18
2023-03-21T07:11:58.949Z,9.15
2023-03-21T07:14:34.692Z,9.14
2023-03-21T07:17:02.844Z,9.11
2023-03-21T07:19:31.057Z,9.14
2023-03-21T07:22:01.657Z,9.11
2023-03-21T07:24:29.823Z,9.09
2023-03-21T07:26:57.824Z,9.14
2023-03-21T07:29:26.693Z,9.19
2023-03-21T07:31:54.855Z,9.28
2023-03-21T07:34:23.754Z,9.45
2023-03-21T07:36:51.824Z,9.56
2023-03-21T07:39:20.915Z,9.63
2023-03-21T07:41:48.893Z,9.65
2023-03-21T07:44:26.379Z,9.70
2023-03-21T07:47:03.045Z,9.75
2023-03-21T07:49:31.420Z,9.85
2023-03-21T07:52:00.234Z,9.98
2023-03-21T07:54:29.105Z,10.11
2023-03-21T07:56:57.588Z,10.24
2023-03-21T07:59:25.579Z,10.33
2023-03-21T08:01:53.958Z,10.33
2023-03-21T08:04:22.831Z,10.34
2023-03-21T08:06:51.369Z,10.32
2023-03-21T08:09:19.885Z,10.28
2023-03-21T08:11:47.855Z,10.21
2023-03-21T08:14:16.057Z,10.21
2023-03-21T08:16:44.044Z,10.17
2023-03-21T08:19:12.380Z,10.18
2023-03-21T08:21:40.569Z,10.22
2023-03-21T08:24:08.717Z,10.36
2023-03-21T08:26:36.879Z,10.56
2023-03-21T08:29:05.192Z,10.79
2023-03-21T08:31:33.281Z,10.97
2023-03-21T08:34:01.862Z,11.17
2023-03-21T08:36:30.758Z,11.45
2023-03-21T08:39:05.532Z,11.70
2023-03-21T08:41:36.188Z,11.84
2023-03-21T08:44:06.870Z,11.99
2023-03-21T08:46:34.868Z,12.07
2023-03-21T08:49:03.532Z,12.22
2023-03-21T08:51:31.992Z,12.24
2023-03-21T08:54:00.031Z,12.32
2023-03-21T08:56:27.981Z,12.34
2023-03-21T08:58:56.916Z,12.37
2023-03-21T09:01:24.985Z,12.37
2023-03-21T09:03:53.039Z,12.33
2023-03-21T09:06:21.941Z,12.14
2023-03-21T09:08:52.953Z,12.04
2023-03-21T09:11:21.022Z,11.98
2023-03-21T09:13:49.017Z,11.85
2023-03-21T09:16:17.228Z,11.73
2023-03-21T09:18:45.747Z,11.70
2023-03-21T09:21:16.276Z,11.70
2023-03-21T09:23:45.044Z,11.77
2023-03-21T09:26:13.917Z,11.73
2023-03-21T09:28:43.140Z,11.71
2023-03-21T09:31:12.518Z,11.84
2023-03-21T09:33:41.560Z,11.99
2023-03-21T09:36:14.576Z,12.14
2023-03-21T09:38:45.780Z,12.13
2023-03-21T09:41:54.292Z,12.07
2023-03-21T09:44:53.798Z,11.99
2023-03-21T09:47:29.393Z,11.86
2023-03-21T09:50:14.098Z,11.68
2023-03-21T09:52:48.175Z,11.46
2023-03-21T09:55:20.201Z,11.31
2023-03-21T09:57:57.656Z,11.25
2023-03-21T10:00:31.228Z,11.27
2023-03-21T10:03:07.032Z,11.26
2023-03-21T10:05:40.667Z,11.36
2023-03-21T10:08:16.709Z,11.53
2023-03-21T10:10:49.722Z,11.75
2023-03-21T10:13:22.819Z,11.92
2023-03-21T10:15:50.933Z,12.15
2023-03-21T10:18:24.937Z,12.27
2023-03-21T10:20:53.420Z,12.44
2023-03-21T10:23:27.983Z,12.61
2023-03-21T10:25:59.648Z,12.65
2023-03-21T10:28:42.398Z,12.56
2023-03-21T10:31:22.268Z,12.42
2023-03-21T10:33:51.871Z,12.34
2023-03-21T10:36:25.849Z,12.42
2023-03-21T10:39:24.920Z,12.69
2023-03-21T10:41:53.497Z,13.03
2023-03-21T10:44:22.055Z,13.14
2023-03-21T10:46:58.447Z,13.11
2023-03-21T10:49:31.425Z,12.89
2023-03-21T10:52:07.902Z,12.47
2023-03-21T10:54:36.238Z,12.12
2023-03-21T10:57:18.541Z,11.79
2023-03-21T10:59:58.109Z,11.42
2023-03-21T11:02:31.628Z,11.15
2023-03-21T11:05:06.468Z,10.93
2023-03-21T11:07:37.836Z,10.79
2023-03-21T11:10:19.946Z,10.61
2023-03-21T11:12:57.861Z,10.49
2023-03-21T11:15:41.858Z,10.45
2023-03-21T11:18:24.663Z,10.43
2023-03-21T11:20:59.421Z,10.49
2023-03-21T11:23:31.757Z,10.54
2023-03-21T11:26:02.001Z,10.54
2023-03-21T11:28:38.070Z,10.42
2023-03-21T11:31:09.577Z,10.45
2023-03-21T11:33:55.442Z,10.63
2023-03-21T11:36:23.442Z,10.82
2023-03-21T11:38:54.290Z,11.04
2023-03-21T11:41:24.854Z,11.22
2023-03-21T11:43:54.378Z,11.50
2023-03-21T11:46:28.165Z,11.77
2023-03-21T11:48:58.271Z,12.05
2023-03-21T11:51:46.864Z,12.30
2023-03-21T11:54:27.602Z,12.54
2023-03-21T11:57:15.489Z,12.72
2023-03-21T11:59:56.865Z,12.75
2023-03-21T12:02:34.909Z,12.66
2023-03-21T12:05:20.209Z,12.65
2023-03-21T12:07:48.149Z,12.70
2023-03-21T12:10:47.816Z,12.80
2023-03-21T12:13:31.732Z,12.97
2023-03-21T12:16:06.612Z,13.03
2023-03-21T12:18:37.575Z,13.05
2023-03-21T12:21:13.720Z,13.25
2023-03-21T12:23:53.689Z,13.43
2023-03-21T12:26:27.847Z,13.59
2023-03-21T12:28:58.710Z,13.67
2023-03-21T12:31:54.131Z,13.63
2023-03-21T12:34:53.672Z,13.56
2023-03-21T12:37:43.455Z,13.52
2023-03-21T12:40:14.946Z,13.39
2023-03-21T12:43:23.700Z,13.33
2023-03-21T12:45:56.419Z,13.13
2023-03-21T12:48:33.771Z,12.86
2023-03-21T12:51:05.200Z,12.50
2023-03-21T12:54:03.379Z,12.27
2023-03-21T12:56:37.282Z,11.97
2023-03-21T12:59:20.910Z,11.82
2023-03-21T13:01:53.560Z,11.75
2023-03-21T13:04:39.938Z,11.67
2023-03-21T13:07:12.853Z,11.74
2023-03-21T13:09:42.237Z,11.77
2023-03-21T13:12:36.903Z,11.86
2023-03-21T13:15:24.142Z,11.86
2023-03-21T13:18:02.128Z,11.86
2023-03-21T13:20:46.389Z,11.90
2023-03-21T13:23:14.346Z,11.95
2023-03-21T13:25:48.643Z,11.95
2023-03-21T13:28:39.153Z,12.04
2023-03-21T13:31:50.982Z,12.19
2023-03-21T13:34:24.301Z,12.19
2023-03-21T13:36:53.154Z,12.19
2023-03-21T13:39:26.696Z,12.21
2023-03-21T13:41:56.044Z,12.14
2023-03-21T13:44:24.156Z,12.06
2023-03-21T13:47:05.010Z,11.95
2023-03-21T13:49:37.598Z,11.64
2023-03-21T13:52:27.759Z,11.00
2023-03-21T13:54:57.099Z,10.40
2023-03-21T13:57:29.528Z,10.23
2023-03-21T14:00:30.487Z,10.11
2023-03-21T14:03:08.724Z,9.93
2023-03-21T14:05:37.909Z,9.91
2023-03-21T14:08:15.671Z,9.99
2023-03-21T14:10:49.294Z,10.12
2023-03-21T14:13:20.971Z,10.25
2023-03-21T14:15:56.332Z,10.26
2023-03-21T14:18:35.015Z,10.36
2023-03-21T14:21:05.162Z,10.40
2023-03-21T14:23:39.075Z,10.41
2023-03-21T14:26:07.240Z,10.43
2023-03-21T14:28:36.766Z,10.47
2023-03-21T14:31:04.962Z,10.35
2023-03-21T14:33:37.775Z,10.31
2023-03-21T14:36:19.239Z,10.25
2023-03-21T14:39:12.285Z,10.16
2023-03-21T14:41:46.610Z,10.13
2023-03-21T14:44:28.258Z,10.13
2023-03-21T14:47:09.030Z,10.30
2023-03-21T14:49:38.568Z,10.42
2023-03-21T14:52:29.989Z,10.44
2023-03-21T14:55:00.774Z,10.42
2023-03-21T14:57:32.543Z,10.38
2023-03-21T15:00:10.202Z,10.32
2023-03-21T15:02:41.880Z,10.26
2023-03-21T15:05:17.201Z,10.16
2023-03-21T15:07:57.509Z,10.09
2023-03-21T15:10:27.395Z,10.07
2023-03-21T15:13:01.706Z,10.02
2023-03-21T15:15:31.938Z,9.97
2023-03-21T15:18:04.821Z,9.94
2023-03-21T15:20:36.693Z,9.95
2023-03-21T15:23:10.965Z,9.94
2023-03-21T15:25:39.651Z,9.92
2023-03-21T15:28:08.109Z,9.90
2023-03-21T15:30:36.186Z,9.88
2023-03-21T15:33:10.528Z,9.88
2023-03-21T15:35:42.431Z,9.90
2023-03-21T15:38:22.252Z,9.95
2023-03-21T15:40:50.325Z,10.02
2023-03-21T15:43:20.178Z,10.09
2023-03-21T15:45:51.009Z,10.20
2023-03-21T15:48:28.016Z,10.27
2023-03-21T15:50:56.146Z,10.29
2023-03-21T15:53:24.912Z,10.27
2023-03-21T15:56:06.075Z,10.21
2023-03-21T15:58:37.079Z,10.12
2023-03-21T16:01:11.314Z,10.03
2023-03-21T16:03:45.971Z,9.99
2023-03-21T16:06:18.646Z,9.93
2023-03-21T16:08:51.295Z,9.85
2023-03-21T16:11:36.902Z,9.76
2023-03-21T16:14:06.390Z,9.66
2023-03-21T16:16:35.173Z,9.59
2023-03-21T16:19:03.631Z,9.50
2023-03-21T16:21:32.016Z,9.38
2023-03-21T16:24:00.933Z,9.25
2023-03-21T16:26:36.002Z,9.12
2023-03-21T16:29:05.035Z,8.99
2023-03-21T16:31:34.846Z,8.85
2023-03-21T16:34:04.659Z,8.75
2023-03-21T16:36:36.779Z,8.66
2023-03-21T16:39:26.382Z,8.56
2023-03-21T16:41:54.362Z,8.43
2023-03-21T16:44:22.838Z,8.32
2023-03-21T16:46:51.222Z,8.23
2023-03-21T16:49:23.902Z,8.15
2023-03-21T16:51:53.898Z,8.04
2023-03-21T16:54:22.511Z,7.95
2023-03-21T16:56:54.070Z,7.85
2023-03-21T16:59:23.125Z,7.75
2023-03-21T17:01:51.456Z,7.64
2023-03-21T17:04:19.680Z,7.53
2023-03-21T17:06:53.772Z,7.43
2023-03-21T17:09:26.363Z,7.34
2023-03-21T17:11:55.349Z,7.24
2023-03-21T17:14:23.868Z,7.17
2023-03-21T17:16:52.738Z,7.10
2023-03-21T17:19:27.727Z,7.01
2023-03-21T17:21:56.228Z,6.92
2023-03-21T17:24:26.446Z,6.84
2023-03-21T17:26:54.842Z,6.75
2023-03-21T17:29:22.968Z,6.66
2023-03-21T17:31:51.113Z,6.60
2023-03-21T17:34:19.504Z,6.53
2023-03-21T17:36:49.248Z,6.47
2023-03-21T17:39:25.284Z,6.41
2023-03-21T17:41:54.925Z,6.32
2023-03-21T17:44:23.114Z,6.22
2023-03-21T17:46:52.228Z,6.15
2023-03-21T17:49:21.295Z,6.11
2023-03-21T17:51:50.680Z,6.07
2023-03-21T17:54:19.506Z,6.03
2023-03-21T17:56:48.571Z,5.96
2023-03-21T17:59:17.241Z,5.89
2023-03-21T18:10:58.609Z,5.63
2023-03-21T18:13:28.400Z,5.56
2023-03-21T18:15:59.922Z,5.49
2023-03-21T18:18:31.423Z,5.43
2023-03-21T18:21:02.759Z,5.40
2023-03-21T18:23:33.417Z,5.37
2023-03-21T18:26:04.273Z,5.31
2023-03-21T18:28:41.312Z,5.24
2023-03-21T18:31:19.800Z,5.17
2023-03-21T18:33:52.594Z,5.12
2023-03-21T18:36:28.252Z,5.08
2023-03-21T18:39:02.418Z,5.05
2023-03-21T18:41:34.453Z,5.00
2023-03-21T18:44:16.042Z,4.95
2023-03-21T18:46:52.624Z,4.88
2023-03-21T18:52:14.468Z,4.79
2023-03-21T18:54:46.453Z,4.73
2023-03-21T19:00:13.798Z,4.62
2023-03-21T19:02:50.325Z,4.55
2023-03-21T19:05:23.531Z,4.49
2023-03-21T19:07:54.549Z,4.42
2023-03-21T19:10:26.489Z,4.36
2023-03-21T19:20:29.807Z,4.16
2023-03-21T19:22:57.968Z,4.11
2023-03-21T19:25:26.856Z,4.06
2023-03-21T19:27:55.022Z,4.01
2023-03-21T19:30:23.093Z,3.97
2023-03-21T19:32:52.023Z,3.93
2023-03-21T19:35:20.336Z,3.88
2023-03-21T19:37:48.666Z,3.81
2023-03-21T19:40:17.160Z,3.75
2023-03-21T19:42:45.917Z,3.70
2023-03-21T19:45:14.121Z,3.64
2023-03-21T19:47:42.242Z,3.60
2023-03-21T19:52:59.692Z,3.50
2023-03-21T19:55:27.987Z,3.45
2023-03-21T19:57:56.343Z,3.41
2023-03-21T20:00:24.585Z,3.37
2023-03-21T20:02:52.654Z,3.33
2023-03-21T20:05:22.268Z,3.31
2023-03-21T20:07:50.420Z,3.28
2023-03-21T20:10:18.753Z,3.25
2023-03-21T20:12:47.301Z,3.24
2023-03-21T20:15:19.601Z,3.24
2023-03-21T20:17:50.506Z,3.23
2023-03-21T20:30:07.538Z,3.08
2023-03-21T20:36:54.140Z,3.11
2023-03-21T20:39:22.520Z,3.16
2023-03-21T20:41:50.572Z,3.18
2023-03-21T20:47:07.287Z,3.19
2023-03-21T20:49:35.305Z,3.13
2023-03-21T20:54:57.512Z,3.01
2023-03-21T20:57:30.329Z,2.95
2023-03-21T20:59:58.272Z,2.87
2023-03-21T21:02:26.625Z,2.81
2023-03-21T21:05:24.095Z,2.77
2023-03-21T21:07:44.063Z,2.72
2023-03-21T21:10:14.811Z,2.66
2023-03-21T21:12:45.387Z,2.63
2023-03-21T21:15:16.737Z,2.62
2023-03-21T21:20:33.793Z,2.57
2023-03-21T21:23:01.944Z,2.54
2023-03-21T21:25:33.545Z,2.50
2023-03-21T21:28:02.041Z,2.48
2023-03-21T21:30:31.737Z,2.48
2023-03-21T21:33:00.919Z,2.46
2023-03-21T21:35:29.097Z,2.44
2023-03-21T21:37:57.075Z,2.43
2023-03-21T21:40:25.694Z,2.42
2023-03-21T21:42:53.868Z,2.39
2023-03-21T21:45:21.986Z,2.34
2023-03-21T21:47:50.018Z,2.30
2023-03-21T21:50:18.915Z,2.24
2023-03-21T21:52:54.376Z,2.20
2023-03-21T21:55:22.707Z,2.17
2023-03-21T21:57:50.760Z,2.17
2023-03-21T22:00:20.245Z,2.14
2023-03-21T22:02:48.384Z,2.10
2023-03-21T22:05:16.608Z,2.06
2023-03-21T22:07:46.638Z,2.03
2023-03-21T22:10:15.512Z,2.01
2023-03-21T22:12:43.381Z,2.00
2023-03-21T22:15:12.227Z,1.97
2023-03-21T22:17:41.164Z,1.96
2023-03-21T22:20:10.112Z,1.93
2023-03-21T22:22:38.502Z,1.88
2023-03-21T22:25:09.161Z,1.83
2023-03-21T22:27:37.294Z,1.78
2023-03-21T22:30:07.713Z,1.74
2023-03-21T22:32:38.206Z,1.72
2023-03-21T22:35:09.049Z,1.69
2023-03-21T22:37:39.870Z,1.65
2023-03-21T22:40:10.471Z,1.61
2023-03-21T22:42:39.730Z,1.60
2023-03-21T22:45:10.019Z,1.58
2023-03-21T22:47:38.495Z,1.52
2023-03-21T22:50:07.611Z,1.48
2023-03-21T22:52:35.722Z,1.46
2023-03-21T22:55:03.816Z,1.46
2023-03-21T22:57:31.688Z,1.45
2023-03-21T22:59:59.563Z,1.47
2023-03-21T23:02:27.907Z,1.48
2023-03-21T23:04:55.955Z,1.46
2023-03-21T23:07:23.938Z,1.47
2023-03-21T23:09:51.980Z,1.48
2023-03-21T23:12:19.885Z,1.49
2023-03-21T23:14:47.779Z,1.48
2023-03-21T23:17:16.446Z,1.46
2023-03-21T23:19:44.445Z,1.44
2023-03-21T23:22:12.536Z,1.41
2023-03-21T23:24:40.507Z,1.40
2023-03-21T23:27:08.419Z,1.40
2023-03-21T23:29:36.343Z,1.38
2023-03-21T23:32:04.785Z,1.36
2023-03-21T23:34:32.641Z,1.32
2023-03-21T23:37:00.755Z,1.31
2023-03-21T23:39:28.651Z,1.27
2023-03-21T23:41:58.692Z,1.24
2023-03-21T23:44:27.496Z,1.22
2023-03-21T23:46:55.792Z,1.18
2023-03-21T23:49:23.880Z,1.14
2023-03-21T23:51:51.836Z,1.09
2023-03-21T23:54:19.927Z,1.08
2023-03-21T23:56:47.813Z,1.06
2023-03-21T23:59:15.855Z,1.03
